sensor_id;sensor_type;location;lat;lon;timestamp;P1;durP1;ratioP1;P2;durP2;ratioP2
68985;SDS011;56035;37.534;-122.308;2024-02-21T00:02:20;1.20;;;0.50;;
68985;SDS011;56035;37.534;-122.308;2024-02-21T00:04:47;4.60;;;0.70;;
68985;SDS011;56035;37.534;-122.308;2024-02-21T00:07:13;1.27;;;0.50;;
68985;SDS011;56035;37.534;-122.308;2024-02-21T00:09:40;1.83;;;0.70;;
68985;SDS011;56035;37.534;-122.308;2024-02-21T00:12:06;2.88;;;0.70;;
68985;SDS011;56035;37.534;-122.308;2024-02-21T00:14:33;1.40;;;0.50;;
68985;SDS011;56035;37.534;-122.308;2024-02-21T00:16:59;1.80;;;0.63;;
68985;SDS011;56035;37.534;-122.308;2024-02-21T00:19:25;1.80;;;0.50;;
68985;SDS011;56035;37.534;-122.308;2024-02-21T00:21:52;1.55;;;0.40;;
68985;SDS011;56035;37.534;-122.308;2024-02-21T00:24:18;4.45;;;0.90;;
68985;SDS011;56035;37.534;-122.308;2024-02-21T00:26:44;2.45;;;1.02;;
68985;SDS011;56035;37.534;-122.308;2024-02-21T00:29:11;3.60;;;0.98;;
68985;SDS011;56035;37.534;-122.308;2024-02-21T00:31:37;3.28;;;0.70;;
68985;SDS011;56035;37.534;-122.308;2024-02-21T00:34:03;1.98;;;0.70;;
68985;SDS011;56035;37.534;-122.308;2024-02-21T00:36:30;2.47;;;0.75;;
68985;SDS011;56035;37.534;-122.308;2024-02-21T00:38:56;3.65;;;0.75;;
68985;SDS011;56035;37.534;-122.308;2024-02-21T00:41:22;3.40;;;0.70;;
68985;SDS011;56035;37.534;-122.308;2024-02-21T00:43:49;0.40;;;0.30;;
68985;SDS011;56035;37.534;-122.308;2024-02-21T00:46:17;1.60;;;0.43;;
68985;SDS011;56035;37.534;-122.308;2024-02-21T00:48:43;0.68;;;0.30;;
68985;SDS011;56035;37.534;-122.308;2024-02-21T00:51:10;3.17;;;0.90;;
68985;SDS011;56035;37.534;-122.308;2024-02-21T00:53:36;6.63;;;1.00;;
68985;SDS011;56035;37.534;-122.308;2024-02-21T00:56:04;2.35;;;0.75;;
68985;SDS011;56035;37.534;-122.308;2024-02-21T00:58:31;3.87;;;0.70;;
68985;SDS011;56035;37.534;-122.308;2024-02-21T01:00:57;3.75;;;0.75;;
68985;SDS011;56035;37.534;-122.308;2024-02-21T01:03:24;4.10;;;0.70;;
68985;SDS011;56035;37.534;-122.308;2024-02-21T01:05:50;6.82;;;1.00;;
68985;SDS011;56035;37.534;-122.308;2024-02-21T01:08:16;5.47;;;1.02;;
68985;SDS011;56035;37.534;-122.308;2024-02-21T01:10:43;4.72;;;0.70;;
68985;SDS011;56035;37.534;-122.308;2024-02-21T01:13:09;3.72;;;0.82;;
68985;SDS011;56035;37.534;-122.308;2024-02-21T01:15:36;3.35;;;0.88;;
68985;SDS011;56035;37.534;-122.308;2024-02-21T01:18:02;5.13;;;1.08;;
68985;SDS011;56035;37.534;-122.308;2024-02-21T01:20:30;5.53;;;0.93;;
68985;SDS011;56035;37.534;-122.308;2024-02-21T01:22:57;4.47;;;1.05;;
68985;SDS011;56035;37.534;-122.308;2024-02-21T01:25:23;5.22;;;1.42;;
68985;SDS011;56035;37.534;-122.308;2024-02-21T01:27:49;2.80;;;0.90;;
68985;SDS011;56035;37.534;-122.308;2024-02-21T01:30:17;6.87;;;1.20;;
68985;SDS011;56035;37.534;-122.308;2024-02-21T01:32:43;4.75;;;0.90;;
68985;SDS011;56035;37.534;-122.308;2024-02-21T01:35:09;2.13;;;0.73;;
68985;SDS011;56035;37.534;-122.308;2024-02-21T01:37:36;5.50;;;1.10;;
68985;SDS011;56035;37.534;-122.308;2024-02-21T01:40:02;3.65;;;1.02;;
68985;SDS011;56035;37.534;-122.308;2024-02-21T01:42:29;4.63;;;1.17;;
68985;SDS011;56035;37.534;-122.308;2024-02-21T01:44:55;5.28;;;1.13;;
68985;SDS011;56035;37.534;-122.308;2024-02-21T01:47:22;4.93;;;1.10;;
68985;SDS011;56035;37.534;-122.308;2024-02-21T01:49:49;6.03;;;1.42;;
68985;SDS011;56035;37.534;-122.308;2024-02-21T01:52:16;6.03;;;1.23;;
68985;SDS011;56035;37.534;-122.308;2024-02-21T01:57:09;4.90;;;1.10;;
68985;SDS011;56035;37.534;-122.308;2024-02-21T01:59:35;3.88;;;1.02;;
68985;SDS011;56035;37.534;-122.308;2024-02-21T02:02:02;4.15;;;1.00;;
68985;SDS011;56035;37.534;-122.308;2024-02-21T02:04:28;9.20;;;1.30;;
68985;SDS011;56035;37.534;-122.308;2024-02-21T02:06:55;4.60;;;1.25;;
68985;SDS011;56035;37.534;-122.308;2024-02-21T02:09:21;6.13;;;1.05;;
68985;SDS011;56035;37.534;-122.308;2024-02-21T02:11:48;3.10;;;0.90;;
68985;SDS011;56035;37.534;-122.308;2024-02-21T02:14:14;3.03;;;0.90;;
68985;SDS011;56035;37.534;-122.308;2024-02-21T02:16:40;7.18;;;1.10;;
68985;SDS011;56035;37.534;-122.308;2024-02-21T02:19:07;6.55;;;1.33;;
68985;SDS011;56035;37.534;-122.308;2024-02-21T02:21:39;6.83;;;1.00;;
68985;SDS011;56035;37.534;-122.308;2024-02-21T02:24:07;8.20;;;1.43;;
68985;SDS011;56035;37.534;-122.308;2024-02-21T02:26:33;3.78;;;1.17;;
68985;SDS011;56035;37.534;-122.308;2024-02-21T02:29:01;7.85;;;1.30;;
68985;SDS011;56035;37.534;-122.308;2024-02-21T02:31:27;7.23;;;1.70;;
68985;SDS011;56035;37.534;-122.308;2024-02-21T02:33:54;5.45;;;1.30;;
68985;SDS011;56035;37.534;-122.308;2024-02-21T02:36:20;4.65;;;1.52;;
68985;SDS011;56035;37.534;-122.308;2024-02-21T02:38:47;4.93;;;1.30;;
68985;SDS011;56035;37.534;-122.308;2024-02-21T02:41:13;4.13;;;1.30;;
68985;SDS011;56035;37.534;-122.308;2024-02-21T02:43:39;4.90;;;1.23;;
68985;SDS011;56035;37.534;-122.308;2024-02-21T02:46:06;4.28;;;1.40;;
68985;SDS011;56035;37.534;-122.308;2024-02-21T02:48:32;4.75;;;1.48;;
68985;SDS011;56035;37.534;-122.308;2024-02-21T02:50:59;6.45;;;1.67;;
68985;SDS011;56035;37.534;-122.308;2024-02-21T02:53:25;4.70;;;1.55;;
68985;SDS011;56035;37.534;-122.308;2024-02-21T02:55:52;4.67;;;1.73;;
68985;SDS011;56035;37.534;-122.308;2024-02-21T02:58:19;6.40;;;1.77;;
68985;SDS011;56035;37.534;-122.308;2024-02-21T03:00:45;6.35;;;2.22;;
68985;SDS011;56035;37.534;-122.308;2024-02-21T03:03:12;5.07;;;2.00;;
68985;SDS011;56035;37.534;-122.308;2024-02-21T03:05:38;5.40;;;1.33;;
68985;SDS011;56035;37.534;-122.308;2024-02-21T03:08:04;6.75;;;2.15;;
68985;SDS011;56035;37.534;-122.308;2024-02-21T03:10:35;4.70;;;2.10;;
68985;SDS011;56035;37.534;-122.308;2024-02-21T03:13:01;8.67;;;2.50;;
68985;SDS011;56035;37.534;-122.308;2024-02-21T03:15:28;8.60;;;2.67;;
68985;SDS011;56035;37.534;-122.308;2024-02-21T03:17:55;10.82;;;2.42;;
68985;SDS011;56035;37.534;-122.308;2024-02-21T03:20:21;7.85;;;3.17;;
68985;SDS011;56035;37.534;-122.308;2024-02-21T03:22:48;9.07;;;3.20;;
68985;SDS011;56035;37.534;-122.308;2024-02-21T03:25:14;9.20;;;3.35;;
68985;SDS011;56035;37.534;-122.308;2024-02-21T03:27:41;9.23;;;3.53;;
68985;SDS011;56035;37.534;-122.308;2024-02-21T03:32:34;10.80;;;4.23;;
68985;SDS011;56035;37.534;-122.308;2024-02-21T03:35:01;13.35;;;4.80;;
68985;SDS011;56035;37.534;-122.308;2024-02-21T03:37:27;9.65;;;4.28;;
68985;SDS011;56035;37.534;-122.308;2024-02-21T03:39:54;10.13;;;4.20;;
68985;SDS011;56035;37.534;-122.308;2024-02-21T03:42:20;9.38;;;5.00;;
68985;SDS011;56035;37.534;-122.308;2024-02-21T03:44:47;11.48;;;5.28;;
68985;SDS011;56035;37.534;-122.308;2024-02-21T03:47:13;11.27;;;5.25;;
68985;SDS011;56035;37.534;-122.308;2024-02-21T03:49:40;14.38;;;6.53;;
68985;SDS011;56035;37.534;-122.308;2024-02-21T03:52:06;15.02;;;6.43;;
68985;SDS011;56035;37.534;-122.308;2024-02-21T03:56:59;16.07;;;7.23;;
68985;SDS011;56035;37.534;-122.308;2024-02-21T03:59:25;15.60;;;6.53;;
68985;SDS011;56035;37.534;-122.308;2024-02-21T04:01:52;14.57;;;7.47;;
68985;SDS011;56035;37.534;-122.308;2024-02-21T04:04:19;16.08;;;7.38;;
68985;SDS011;56035;37.534;-122.308;2024-02-21T04:06:49;13.52;;;6.93;;
68985;SDS011;56035;37.534;-122.308;2024-02-21T04:09:15;15.07;;;7.13;;
68985;SDS011;56035;37.534;-122.308;2024-02-21T04:11:42;16.40;;;7.40;;
68985;SDS011;56035;37.534;-122.308;2024-02-21T04:14:08;16.98;;;8.30;;
68985;SDS011;56035;37.534;-122.308;2024-02-21T04:16:36;17.70;;;8.43;;
68985;SDS011;56035;37.534;-122.308;2024-02-21T04:19:04;15.60;;;8.80;;
68985;SDS011;56035;37.534;-122.308;2024-02-21T04:21:30;23.33;;;9.73;;
68985;SDS011;56035;37.534;-122.308;2024-02-21T04:23:56;18.90;;;9.15;;
68985;SDS011;56035;37.534;-122.308;2024-02-21T04:28:49;21.43;;;7.83;;
68985;SDS011;56035;37.534;-122.308;2024-02-21T04:31:16;21.17;;;7.35;;
68985;SDS011;56035;37.534;-122.308;2024-02-21T04:33:42;23.23;;;8.20;;
68985;SDS011;56035;37.534;-122.308;2024-02-21T04:36:09;19.65;;;7.57;;
68985;SDS011;56035;37.534;-122.308;2024-02-21T04:38:35;26.20;;;7.60;;
68985;SDS011;56035;37.534;-122.308;2024-02-21T04:41:01;25.88;;;7.60;;
68985;SDS011;56035;37.534;-122.308;2024-02-21T04:43:28;21.52;;;8.55;;
68985;SDS011;56035;37.534;-122.308;2024-02-21T04:45:54;25.88;;;7.22;;
68985;SDS011;56035;37.534;-122.308;2024-02-21T04:48:21;24.15;;;7.45;;
68985;SDS011;56035;37.534;-122.308;2024-02-21T04:50:47;19.70;;;7.78;;
68985;SDS011;56035;37.534;-122.308;2024-02-21T04:53:14;24.85;;;7.90;;
68985;SDS011;56035;37.534;-122.308;2024-02-21T04:55:41;23.20;;;8.07;;
68985;SDS011;56035;37.534;-122.308;2024-02-21T04:58:08;20.77;;;7.38;;
68985;SDS011;56035;37.534;-122.308;2024-02-21T05:00:34;26.48;;;7.70;;
68985;SDS011;56035;37.534;-122.308;2024-02-21T05:03:00;23.52;;;7.03;;
68985;SDS011;56035;37.534;-122.308;2024-02-21T05:05:27;20.52;;;7.32;;
68985;SDS011;56035;37.534;-122.308;2024-02-21T05:07:53;29.73;;;8.00;;
68985;SDS011;56035;37.534;-122.308;2024-02-21T05:10:20;19.27;;;8.10;;
68985;SDS011;56035;37.534;-122.308;2024-02-21T05:12:46;22.77;;;8.20;;
68985;SDS011;56035;37.534;-122.308;2024-02-21T05:15:12;21.95;;;8.15;;
68985;SDS011;56035;37.534;-122.308;2024-02-21T05:17:39;22.90;;;7.97;;
68985;SDS011;56035;37.534;-122.308;2024-02-21T05:20:05;27.52;;;7.53;;
68985;SDS011;56035;37.534;-122.308;2024-02-21T05:22:32;19.50;;;7.57;;
68985;SDS011;56035;37.534;-122.308;2024-02-21T05:24:58;22.95;;;7.22;;
68985;SDS011;56035;37.534;-122.308;2024-02-21T05:27:25;20.35;;;7.88;;
68985;SDS011;56035;37.534;-122.308;2024-02-21T05:29:51;24.88;;;7.88;;
68985;SDS011;56035;37.534;-122.308;2024-02-21T05:32:19;21.33;;;8.20;;
68985;SDS011;56035;37.534;-122.308;2024-02-21T05:34:48;20.70;;;8.23;;
68985;SDS011;56035;37.534;-122.308;2024-02-21T05:37:15;24.23;;;9.00;;
68985;SDS011;56035;37.534;-122.308;2024-02-21T05:39:41;22.55;;;8.57;;
68985;SDS011;56035;37.534;-122.308;2024-02-21T05:42:08;28.77;;;9.60;;
68985;SDS011;56035;37.534;-122.308;2024-02-21T05:44:34;24.38;;;8.77;;
68985;SDS011;56035;37.534;-122.308;2024-02-21T05:47:00;24.60;;;9.57;;
68985;SDS011;56035;37.534;-122.308;2024-02-21T05:49:27;28.88;;;12.45;;
68985;SDS011;56035;37.534;-122.308;2024-02-21T05:51:53;22.52;;;11.35;;
68985;SDS011;56035;37.534;-122.308;2024-02-21T05:54:19;29.15;;;11.27;;
68985;SDS011;56035;37.534;-122.308;2024-02-21T05:56:46;23.15;;;11.18;;
68985;SDS011;56035;37.534;-122.308;2024-02-21T05:59:12;24.20;;;8.77;;
68985;SDS011;56035;37.534;-122.308;2024-02-21T06:01:39;19.20;;;8.15;;
68985;SDS011;56035;37.534;-122.308;2024-02-21T06:04:05;18.55;;;7.50;;
68985;SDS011;56035;37.534;-122.308;2024-02-21T06:06:32;19.63;;;7.20;;
68985;SDS011;56035;37.534;-122.308;2024-02-21T06:08:58;21.02;;;7.97;;
68985;SDS011;56035;37.534;-122.308;2024-02-21T06:11:25;20.00;;;7.28;;
68985;SDS011;56035;37.534;-122.308;2024-02-21T06:13:51;17.45;;;5.35;;
68985;SDS011;56035;37.534;-122.308;2024-02-21T06:16:18;23.13;;;7.25;;
68985;SDS011;56035;37.534;-122.308;2024-02-21T06:18:44;21.10;;;8.32;;
68985;SDS011;56035;37.534;-122.308;2024-02-21T06:21:10;20.00;;;7.63;;
68985;SDS011;56035;37.534;-122.308;2024-02-21T06:26:03;21.40;;;6.90;;
68985;SDS011;56035;37.534;-122.308;2024-02-21T06:28:30;22.50;;;6.10;;
68985;SDS011;56035;37.534;-122.308;2024-02-21T06:30:56;12.82;;;3.60;;
68985;SDS011;56035;37.534;-122.308;2024-02-21T06:33:22;20.00;;;4.38;;
68985;SDS011;56035;37.534;-122.308;2024-02-21T06:35:50;18.57;;;4.20;;
68985;SDS011;56035;37.534;-122.308;2024-02-21T06:38:18;21.60;;;4.60;;
68985;SDS011;56035;37.534;-122.308;2024-02-21T06:43:16;16.17;;;4.90;;
68985;SDS011;56035;37.534;-122.308;2024-02-21T06:45:44;20.10;;;5.07;;
68985;SDS011;56035;37.534;-122.308;2024-02-21T06:48:13;22.63;;;5.50;;
68985;SDS011;56035;37.534;-122.308;2024-02-21T06:50:39;18.02;;;5.22;;
68985;SDS011;56035;37.534;-122.308;2024-02-21T06:53:06;29.80;;;5.10;;
68985;SDS011;56035;37.534;-122.308;2024-02-21T06:55:32;20.40;;;5.60;;
68985;SDS011;56035;37.534;-122.308;2024-02-21T06:57:58;20.50;;;4.95;;
68985;SDS011;56035;37.534;-122.308;2024-02-21T07:00:25;20.60;;;4.95;;
68985;SDS011;56035;37.534;-122.308;2024-02-21T07:02:51;15.85;;;5.00;;
68985;SDS011;56035;37.534;-122.308;2024-02-21T07:05:18;17.15;;;4.38;;
68985;SDS011;56035;37.534;-122.308;2024-02-21T07:07:44;14.00;;;4.22;;
68985;SDS011;56035;37.534;-122.308;2024-02-21T07:10:10;13.32;;;4.20;;
68985;SDS011;56035;37.534;-122.308;2024-02-21T07:12:37;16.58;;;4.50;;
68985;SDS011;56035;37.534;-122.308;2024-02-21T07:15:07;24.77;;;5.03;;
68985;SDS011;56035;37.534;-122.308;2024-02-21T07:17:33;24.77;;;4.18;;
68985;SDS011;56035;37.534;-122.308;2024-02-21T07:19:59;20.27;;;3.95;;
68985;SDS011;56035;37.534;-122.308;2024-02-21T07:22:26;16.65;;;3.45;;
68985;SDS011;56035;37.534;-122.308;2024-02-21T07:24:53;16.58;;;3.30;;
68985;SDS011;56035;37.534;-122.308;2024-02-21T07:27:19;23.10;;;4.22;;
68985;SDS011;56035;37.534;-122.308;2024-02-21T07:29:45;24.55;;;3.90;;
68985;SDS011;56035;37.534;-122.308;2024-02-21T07:32:14;19.27;;;3.67;;
68985;SDS011;56035;37.534;-122.308;2024-02-21T07:34:40;33.42;;;5.07;;
68985;SDS011;56035;37.534;-122.308;2024-02-21T07:37:06;18.83;;;6.65;;
68985;SDS011;56035;37.534;-122.308;2024-02-21T07:39:35;19.45;;;5.43;;
68985;SDS011;56035;37.534;-122.308;2024-02-21T07:42:04;16.30;;;4.33;;
68985;SDS011;56035;37.534;-122.308;2024-02-21T07:44:31;19.70;;;4.22;;
68985;SDS011;56035;37.534;-122.308;2024-02-21T07:46:59;20.43;;;3.60;;
68985;SDS011;56035;37.534;-122.308;2024-02-21T07:49:25;17.33;;;3.47;;
68985;SDS011;56035;37.534;-122.308;2024-02-21T07:51:52;15.20;;;3.53;;
68985;SDS011;56035;37.534;-122.308;2024-02-21T07:54:18;13.50;;;3.28;;
68985;SDS011;56035;37.534;-122.308;2024-02-21T07:56:45;16.40;;;3.67;;
68985;SDS011;56035;37.534;-122.308;2024-02-21T07:59:12;23.87;;;3.77;;
68985;SDS011;56035;37.534;-122.308;2024-02-21T08:01:39;30.33;;;3.70;;
68985;SDS011;56035;37.534;-122.308;2024-02-21T08:04:06;16.35;;;3.17;;
68985;SDS011;56035;37.534;-122.308;2024-02-21T08:06:32;20.52;;;3.22;;
68985;SDS011;56035;37.534;-122.308;2024-02-21T08:08:58;18.38;;;3.10;;
68985;SDS011;56035;37.534;-122.308;2024-02-21T08:13:51;22.50;;;3.10;;
68985;SDS011;56035;37.534;-122.308;2024-02-21T08:16:18;13.57;;;3.05;;
68985;SDS011;56035;37.534;-122.308;2024-02-21T08:18:44;21.15;;;3.45;;
68985;SDS011;56035;37.534;-122.308;2024-02-21T08:21:11;14.82;;;3.50;;
68985;SDS011;56035;37.534;-122.308;2024-02-21T08:23:37;18.98;;;2.90;;
68985;SDS011;56035;37.534;-122.308;2024-02-21T08:26:03;14.30;;;3.45;;
68985;SDS011;56035;37.534;-122.308;2024-02-21T08:28:30;14.25;;;3.20;;
68985;SDS011;56035;37.534;-122.308;2024-02-21T08:30:57;18.52;;;2.65;;
68985;SDS011;56035;37.534;-122.308;2024-02-21T08:33:23;13.73;;;2.80;;
68985;SDS011;56035;37.534;-122.308;2024-02-21T08:38:17;13.33;;;3.23;;
68985;SDS011;56035;37.534;-122.308;2024-02-21T08:40:44;19.13;;;2.95;;
68985;SDS011;56035;37.534;-122.308;2024-02-21T08:43:10;15.48;;;3.65;;
68985;SDS011;56035;37.534;-122.308;2024-02-21T08:45:37;14.35;;;2.42;;
68985;SDS011;56035;37.534;-122.308;2024-02-21T08:48:03;14.85;;;2.90;;
68985;SDS011;56035;37.534;-122.308;2024-02-21T08:52:56;12.20;;;2.57;;
68985;SDS011;56035;37.534;-122.308;2024-02-21T08:55:23;14.63;;;2.42;;
68985;SDS011;56035;37.534;-122.308;2024-02-21T08:57:49;13.98;;;2.10;;
68985;SDS011;56035;37.534;-122.308;2024-02-21T09:00:16;10.82;;;2.17;;
68985;SDS011;56035;37.534;-122.308;2024-02-21T09:02:42;14.25;;;2.20;;
68985;SDS011;56035;37.534;-122.308;2024-02-21T09:05:09;11.10;;;2.10;;
68985;SDS011;56035;37.534;-122.308;2024-02-21T09:07:35;12.75;;;1.90;;
68985;SDS011;56035;37.534;-122.308;2024-02-21T09:10:01;9.52;;;2.03;;
68985;SDS011;56035;37.534;-122.308;2024-02-21T09:12:28;7.32;;;1.80;;
68985;SDS011;56035;37.534;-122.308;2024-02-21T09:14:54;9.18;;;2.05;;
68985;SDS011;56035;37.534;-122.308;2024-02-21T09:17:21;8.25;;;1.98;;
68985;SDS011;56035;37.534;-122.308;2024-02-21T09:19:47;13.00;;;2.70;;
68985;SDS011;56035;37.534;-122.308;2024-02-21T09:22:14;11.73;;;2.45;;
68985;SDS011;56035;37.534;-122.308;2024-02-21T09:24:40;7.20;;;1.80;;
68985;SDS011;56035;37.534;-122.308;2024-02-21T09:27:06;10.75;;;1.73;;
68985;SDS011;56035;37.534;-122.308;2024-02-21T09:29:33;12.57;;;2.38;;
68985;SDS011;56035;37.534;-122.308;2024-02-21T09:31:59;12.15;;;1.80;;
68985;SDS011;56035;37.534;-122.308;2024-02-21T09:34:26;14.45;;;2.40;;
68985;SDS011;56035;37.534;-122.308;2024-02-21T09:36:53;11.25;;;2.30;;
68985;SDS011;56035;37.534;-122.308;2024-02-21T09:39:19;9.50;;;2.33;;
68985;SDS011;56035;37.534;-122.308;2024-02-21T09:41:48;11.38;;;2.00;;
68985;SDS011;56035;37.534;-122.308;2024-02-21T09:44:18;9.30;;;2.47;;
68985;SDS011;56035;37.534;-122.308;2024-02-21T09:49:56;18.27;;;2.93;;
68985;SDS011;56035;37.534;-122.308;2024-02-21T09:52:23;14.90;;;2.35;;
68985;SDS011;56035;37.534;-122.308;2024-02-21T09:54:50;10.03;;;2.60;;
68985;SDS011;56035;37.534;-122.308;2024-02-21T09:57:17;15.87;;;2.33;;
68985;SDS011;56035;37.534;-122.308;2024-02-21T09:59:44;15.18;;;2.40;;
68985;SDS011;56035;37.534;-122.308;2024-02-21T10:04:39;13.67;;;2.40;;
68985;SDS011;56035;37.534;-122.308;2024-02-21T10:07:06;13.47;;;3.40;;
68985;SDS011;56035;37.534;-122.308;2024-02-21T10:09:34;13.20;;;2.40;;
68985;SDS011;56035;37.534;-122.308;2024-02-21T10:12:10;11.40;;;2.50;;
68985;SDS011;56035;37.534;-122.308;2024-02-21T10:14:37;17.45;;;2.25;;
68985;SDS011;56035;37.534;-122.308;2024-02-21T10:17:04;14.30;;;2.20;;
68985;SDS011;56035;37.534;-122.308;2024-02-21T10:19:34;10.67;;;2.23;;
68985;SDS011;56035;37.534;-122.308;2024-02-21T10:22:10;8.57;;;2.30;;
68985;SDS011;56035;37.534;-122.308;2024-02-21T10:24:37;9.57;;;2.53;;
68985;SDS011;56035;37.534;-122.308;2024-02-21T10:27:06;12.60;;;2.63;;
68985;SDS011;56035;37.534;-122.308;2024-02-21T10:29:37;17.53;;;2.70;;
68985;SDS011;56035;37.534;-122.308;2024-02-21T10:32:04;15.07;;;3.67;;
68985;SDS011;56035;37.534;-122.308;2024-02-21T10:34:35;13.33;;;3.20;;
68985;SDS011;56035;37.534;-122.308;2024-02-21T10:39:29;16.77;;;3.07;;
68985;SDS011;56035;37.534;-122.308;2024-02-21T10:42:00;19.20;;;2.93;;
68985;SDS011;56035;37.534;-122.308;2024-02-21T10:44:29;14.90;;;2.90;;
68985;SDS011;56035;37.534;-122.308;2024-02-21T10:46:59;18.70;;;3.30;;
68985;SDS011;56035;37.534;-122.308;2024-02-21T10:49:33;19.77;;;2.80;;
68985;SDS011;56035;37.534;-122.308;2024-02-21T10:52:21;23.73;;;3.27;;
68985;SDS011;56035;37.534;-122.308;2024-02-21T10:57:43;27.97;;;3.93;;
68985;SDS011;56035;37.534;-122.308;2024-02-21T11:00:10;21.35;;;3.88;;
68985;SDS011;56035;37.534;-122.308;2024-02-21T11:02:37;16.90;;;3.30;;
68985;SDS011;56035;37.534;-122.308;2024-02-21T11:05:05;27.03;;;3.90;;
68985;SDS011;56035;37.534;-122.308;2024-02-21T11:07:31;24.10;;;3.80;;
68985;SDS011;56035;37.534;-122.308;2024-02-21T11:09:58;19.98;;;3.47;;
68985;SDS011;56035;37.534;-122.308;2024-02-21T11:12:25;15.98;;;4.03;;
68985;SDS011;56035;37.534;-122.308;2024-02-21T11:14:52;20.00;;;4.20;;
68985;SDS011;56035;37.534;-122.308;2024-02-21T11:17:32;23.07;;;3.80;;
68985;SDS011;56035;37.534;-122.308;2024-02-21T11:19:58;22.90;;;3.83;;
68985;SDS011;56035;37.534;-122.308;2024-02-21T11:22:40;21.58;;;4.53;;
68985;SDS011;56035;37.534;-122.308;2024-02-21T11:25:10;23.77;;;4.03;;
68985;SDS011;56035;37.534;-122.308;2024-02-21T11:27:39;26.13;;;4.60;;
68985;SDS011;56035;37.534;-122.308;2024-02-21T11:30:11;26.90;;;4.43;;
68985;SDS011;56035;37.534;-122.308;2024-02-21T11:32:39;23.90;;;3.93;;
68985;SDS011;56035;37.534;-122.308;2024-02-21T11:37:34;25.70;;;4.43;;
68985;SDS011;56035;37.534;-122.308;2024-02-21T11:40:04;20.53;;;3.57;;
68985;SDS011;56035;37.534;-122.308;2024-02-21T11:42:35;27.20;;;4.80;;
68985;SDS011;56035;37.534;-122.308;2024-02-21T11:45:01;28.90;;;4.55;;
68985;SDS011;56035;37.534;-122.308;2024-02-21T11:47:28;31.15;;;4.50;;
68985;SDS011;56035;37.534;-122.308;2024-02-21T11:49:54;30.95;;;4.60;;
68985;SDS011;56035;37.534;-122.308;2024-02-21T11:52:21;27.15;;;4.65;;
68985;SDS011;56035;37.534;-122.308;2024-02-21T11:54:52;26.73;;;4.90;;
68985;SDS011;56035;37.534;-122.308;2024-02-21T11:57:21;34.97;;;5.03;;
68985;SDS011;56035;37.534;-122.308;2024-02-21T11:59:47;26.13;;;5.43;;
68985;SDS011;56035;37.534;-122.308;2024-02-21T12:02:15;24.03;;;4.70;;
68985;SDS011;56035;37.534;-122.308;2024-02-21T12:04:42;24.93;;;4.97;;
68985;SDS011;56035;37.534;-122.308;2024-02-21T12:09:35;30.77;;;5.80;;
68985;SDS011;56035;37.534;-122.308;2024-02-21T12:12:05;31.67;;;6.03;;
68985;SDS011;56035;37.534;-122.308;2024-02-21T12:14:32;36.83;;;6.70;;
68985;SDS011;56035;37.534;-122.308;2024-02-21T12:17:00;31.93;;;5.90;;
68985;SDS011;56035;37.534;-122.308;2024-02-21T12:19:29;31.77;;;6.50;;
68985;SDS011;56035;37.534;-122.308;2024-02-21T12:21:56;29.27;;;6.20;;
68985;SDS011;56035;37.534;-122.308;2024-02-21T12:24:26;25.87;;;6.20;;
68985;SDS011;56035;37.534;-122.308;2024-02-21T12:26:53;30.50;;;6.23;;
68985;SDS011;56035;37.534;-122.308;2024-02-21T12:29:21;27.70;;;6.00;;
68985;SDS011;56035;37.534;-122.308;2024-02-21T12:31:51;28.17;;;4.67;;
68985;SDS011;56035;37.534;-122.308;2024-02-21T12:34:19;24.07;;;4.40;;
68985;SDS011;56035;37.534;-122.308;2024-02-21T12:36:47;20.73;;;4.10;;
68985;SDS011;56035;37.534;-122.308;2024-02-21T12:39:13;17.45;;;2.97;;
68985;SDS011;56035;37.534;-122.308;2024-02-21T12:41:40;26.55;;;3.92;;
68985;SDS011;56035;37.534;-122.308;2024-02-21T12:44:09;24.13;;;4.50;;
68985;SDS011;56035;37.534;-122.308;2024-02-21T12:46:39;19.47;;;3.90;;
68985;SDS011;56035;37.534;-122.308;2024-02-21T12:49:06;23.65;;;4.45;;
68985;SDS011;56035;37.534;-122.308;2024-02-21T12:54:00;27.63;;;4.37;;
68985;SDS011;56035;37.534;-122.308;2024-02-21T12:56:28;21.43;;;4.50;;
68985;SDS011;56035;37.534;-122.308;2024-02-21T12:58:56;30.53;;;4.60;;
68985;SDS011;56035;37.534;-122.308;2024-02-21T13:01:23;24.63;;;4.17;;
68985;SDS011;56035;37.534;-122.308;2024-02-21T13:03:49;31.55;;;5.45;;
68985;SDS011;56035;37.534;-122.308;2024-02-21T13:06:16;30.40;;;4.50;;
68985;SDS011;56035;37.534;-122.308;2024-02-21T13:08:44;31.07;;;4.60;;
68985;SDS011;56035;37.534;-122.308;2024-02-21T13:11:12;24.00;;;4.10;;
68985;SDS011;56035;37.534;-122.308;2024-02-21T13:13:38;28.43;;;4.67;;
68985;SDS011;56035;37.534;-122.308;2024-02-21T13:16:05;29.73;;;4.68;;
68985;SDS011;56035;37.534;-122.308;2024-02-21T13:18:32;33.67;;;4.67;;
68985;SDS011;56035;37.534;-122.308;2024-02-21T13:20:58;28.25;;;4.97;;
68985;SDS011;56035;37.534;-122.308;2024-02-21T13:23:25;25.00;;;4.20;;
68985;SDS011;56035;37.534;-122.308;2024-02-21T13:25:51;29.02;;;4.35;;
68985;SDS011;56035;37.534;-122.308;2024-02-21T13:28:18;35.17;;;4.85;;
68985;SDS011;56035;37.534;-122.308;2024-02-21T13:30:44;17.63;;;3.03;;
68985;SDS011;56035;37.534;-122.308;2024-02-21T13:33:11;23.45;;;4.28;;
68985;SDS011;56035;37.534;-122.308;2024-02-21T13:35:37;15.23;;;3.17;;
68985;SDS011;56035;37.534;-122.308;2024-02-21T13:38:04;23.80;;;4.28;;
68985;SDS011;56035;37.534;-122.308;2024-02-21T13:40:30;22.67;;;4.10;;
68985;SDS011;56035;37.534;-122.308;2024-02-21T13:42:57;27.38;;;5.20;;
68985;SDS011;56035;37.534;-122.308;2024-02-21T13:45:23;24.75;;;4.10;;
68985;SDS011;56035;37.534;-122.308;2024-02-21T13:47:50;28.48;;;4.90;;
68985;SDS011;56035;37.534;-122.308;2024-02-21T13:52:43;25.30;;;4.20;;
68985;SDS011;56035;37.534;-122.308;2024-02-21T13:55:09;27.05;;;4.00;;
68985;SDS011;56035;37.534;-122.308;2024-02-21T13:57:36;27.02;;;4.05;;
68985;SDS011;56035;37.534;-122.308;2024-02-21T14:00:03;23.75;;;4.00;;
68985;SDS011;56035;37.534;-122.308;2024-02-21T14:02:30;21.37;;;4.00;;
68985;SDS011;56035;37.534;-122.308;2024-02-21T14:04:56;21.25;;;3.90;;
68985;SDS011;56035;37.534;-122.308;2024-02-21T14:07:23;18.50;;;4.35;;
68985;SDS011;56035;37.534;-122.308;2024-02-21T14:09:49;20.35;;;4.00;;
68985;SDS011;56035;37.534;-122.308;2024-02-21T14:12:16;16.67;;;3.40;;
68985;SDS011;56035;37.534;-122.308;2024-02-21T14:14:45;24.33;;;4.17;;
68985;SDS011;56035;37.534;-122.308;2024-02-21T14:17:12;14.80;;;2.97;;
68985;SDS011;56035;37.534;-122.308;2024-02-21T14:19:38;23.55;;;5.45;;
68985;SDS011;56035;37.534;-122.308;2024-02-21T14:22:05;24.92;;;5.00;;
68985;SDS011;56035;37.534;-122.308;2024-02-21T14:24:31;24.80;;;5.03;;
68985;SDS011;56035;37.534;-122.308;2024-02-21T14:26:57;21.88;;;4.85;;
68985;SDS011;56035;37.534;-122.308;2024-02-21T14:29:25;22.63;;;5.27;;
68985;SDS011;56035;37.534;-122.308;2024-02-21T14:31:51;19.98;;;5.10;;
68985;SDS011;56035;37.534;-122.308;2024-02-21T14:34:17;20.25;;;3.45;;
68985;SDS011;56035;37.534;-122.308;2024-02-21T14:36:44;19.27;;;4.47;;
68985;SDS011;56035;37.534;-122.308;2024-02-21T14:39:10;13.05;;;3.75;;
68985;SDS011;56035;37.534;-122.308;2024-02-21T14:41:37;22.60;;;5.38;;